Route Details

Aircraft Information
Group: North America Fleet
Types: B738, B752, B762, B763
Route Data
Distance: 112nm
Duration: 0h 00m
Origin METAR: KPDX 190853Z 31006KT 10SM CLR 14/09 A2996 RMK AO2 SLP143 T01390089 58001
Dest. METAR: KSEA 190853Z 03010KT 10SM CLR 13/08 A3000 RMK AO2 SLP163 T01280078 58008
Freight Data
(for Jun 19, 2024)
Load Factor:
20%
Manifested Cargo: 16,460lbs
Financial History
Total Freight: 970,579lbs
Average Load: 0lbs/flt
Fuel Used: 73,134lbs
Avg. Fuel Used: 0lbs/flt
Fuel Expense: $60,788
Avg. Fuel Expense: $0
Avg. Fuel Cost: $0/lbs
Total Gross Income: $1,436,395
Pilot Pay: $2,239
Total Expenses: $198,336
Total Revenue: $1,175,454
Average Revenue: $0

Capitol Logistics 404




KPDX
Portland International Airport
Portland, Oregon
KSEA
Seattle-Tacoma International Airport
Seattle, Washington

Activity Log

Date Flight Route Aircraft Duration
02/12/2023 CPX404 COUGA KRIEG HAWKZ7 B738 0h 14m
11/23/2022 CPX384 COUGA KRIEG HAWKZ7 B738 0h 54m
08/04/2022 CPX384 DCT COUGA DCT KRIEG HAWKZ7 B763 0h 50m
10/06/2020 CPX362 COUGA KRIEG HAWKZ7 B763 0h 38m
08/26/2020 CPX362 COUGA KRIEG HAWKZ7 B763 1h 10m
06/19/2019 CPX362 COUGA KRIEG HAWKZ7 B763 0h 43m
03/21/2019 CPX362 COUGA KRIEG HAWKZ7 B763 0h 39m
03/06/2019 CPX362 COUGA KRIEG HAWKZ7 B763 0h 40m
01/31/2019 CPX362 COUGA KRIEG HAWKZ7 B763 0h 47m
01/31/2019 CPX362 COUGA KRIEG HAWKZ7 B763 0h 43m
01/28/2019 CPX362 COUGA KRIEG HAWKZ7 B763 0h 41m